createdAt,value
2022-12-23T00:01:23.490Z,99178.75
2022-12-23T00:03:51.942Z,99176.16
2022-12-23T00:06:21.511Z,99170.53
2022-12-23T00:08:49.280Z,99178.31
2022-12-23T00:11:19.112Z,99186.09
2022-12-23T00:14:05.916Z,99173.97
2022-12-23T00:16:43.165Z,99183.09
2022-12-23T00:19:11.323Z,99177.06
2022-12-23T00:21:39.077Z,99172.22
2022-12-23T00:24:07.721Z,99171.78
2022-12-23T00:26:35.675Z,99169.00
2022-12-23T00:29:04.948Z,99166.56
2022-12-23T00:31:32.860Z,99160.53
2022-12-23T00:34:01.070Z,99161.56
2022-12-23T00:36:30.442Z,99160.72
2022-12-23T00:39:17.563Z,99159.22
2022-12-23T00:42:14.588Z,99158.03
2022-12-23T00:44:43.642Z,99164.50
2022-12-23T00:47:32.203Z,99169.78
2022-12-23T00:49:58.905Z,99172.69
2022-12-23T00:52:27.260Z,99171.69
2022-12-23T00:54:55.000Z,99175.66
2022-12-23T00:57:22.699Z,99171.59
2022-12-23T00:59:51.999Z,99169.50
2022-12-23T01:02:37.841Z,99176.38
2022-12-23T01:05:24.021Z,99175.72
2022-12-23T01:07:51.626Z,99188.09
2022-12-23T01:10:19.508Z,99192.06
2022-12-23T01:12:47.286Z,99201.75
2022-12-23T01:15:16.574Z,99205.34
2022-12-23T01:17:44.279Z,99201.34
2022-12-23T01:20:13.510Z,99208.31
2022-12-23T01:22:41.154Z,99206.63
2022-12-23T01:25:09.472Z,99211.06
2022-12-23T01:27:37.187Z,99217.34
2022-12-23T01:30:05.659Z,99220.03
2022-12-23T01:32:34.752Z,99228.91
2022-12-23T01:35:02.413Z,99236.09
2022-12-23T01:37:30.018Z,99238.09
2022-12-23T01:39:57.648Z,99242.59
2022-12-23T01:42:42.824Z,99251.66
2022-12-23T01:45:16.513Z,99258.09
2022-12-23T01:47:50.414Z,99258.66
2022-12-23T01:50:23.550Z,99264.88
2022-12-23T01:53:04.769Z,99268.38
2022-12-23T01:55:39.579Z,99281.28
2022-12-23T01:58:13.404Z,99270.00
2022-12-23T02:01:00.107Z,99269.03
2022-12-23T02:03:45.141Z,99272.47
2022-12-23T02:06:38.257Z,99272.59
2022-12-23T02:09:19.078Z,99268.53
2022-12-23T02:12:26.840Z,99280.78
2022-12-23T02:15:43.281Z,99275.81
2022-12-23T02:18:46.622Z,99291.56
2022-12-23T02:21:40.626Z,99295.75
2022-12-23T02:24:49.857Z,99297.81
2022-12-23T02:27:23.680Z,99310.63
2022-12-23T02:30:31.968Z,99316.16
2022-12-23T02:33:18.188Z,99319.25
2022-12-23T02:35:54.936Z,99330.38
2022-12-23T02:38:29.778Z,99326.44
2022-12-23T02:41:08.280Z,99334.84
2022-12-23T02:43:42.875Z,99336.06
2022-12-23T02:46:15.250Z,99336.97
2022-12-23T02:48:50.387Z,99343.47
2022-12-23T02:51:20.610Z,99352.06
2022-12-23T02:53:52.274Z,99361.59
2022-12-23T02:56:23.053Z,99358.91
2022-12-23T02:58:54.376Z,99365.22
2022-12-23T03:01:25.873Z,99365.34
2022-12-23T03:03:53.885Z,99375.34
2022-12-23T03:06:25.916Z,99371.00
2022-12-23T03:08:56.908Z,99373.38
2022-12-23T03:11:39.928Z,99376.13
2022-12-23T03:14:26.343Z,99382.50
2022-12-23T03:17:06.684Z,99374.72
2022-12-23T03:19:43.569Z,99380.13
2022-12-23T03:22:20.734Z,99383.38
2022-12-23T03:24:55.693Z,99381.84
2022-12-23T03:27:32.183Z,99387.22
2022-12-23T03:30:03.121Z,99381.06
2022-12-23T03:32:37.188Z,99388.97
2022-12-23T03:35:08.716Z,99387.97
2022-12-23T03:37:40.450Z,99402.09
2022-12-23T03:40:13.002Z,99409.25
2022-12-23T03:42:44.450Z,99417.78
2022-12-23T03:45:38.105Z,99420.66
2022-12-23T03:48:11.970Z,99419.66
2022-12-23T03:50:42.893Z,99425.69
2022-12-23T03:53:17.549Z,99416.28
2022-12-23T03:55:49.591Z,99423.38
2022-12-23T03:58:25.979Z,99428.78
2022-12-23T04:01:00.915Z,99437.25
2022-12-23T04:03:36.681Z,99436.19
2022-12-23T04:06:10.932Z,99434.31
2022-12-23T04:08:40.866Z,99440.94
2022-12-23T04:11:09.337Z,99445.75
2022-12-23T04:13:37.732Z,99442.69
2022-12-23T04:16:06.718Z,99447.84
2022-12-23T04:18:35.913Z,99435.28
2022-12-23T04:21:03.767Z,99426.47
2022-12-23T04:23:31.473Z,99419.91
2022-12-23T04:25:59.091Z,99426.97
2022-12-23T04:28:26.855Z,99428.38
2022-12-23T04:30:54.520Z,99422.34
2022-12-23T04:33:22.239Z,99424.66
2022-12-23T04:35:51.250Z,99431.53
2022-12-23T04:38:19.006Z,99427.09
2022-12-23T04:40:47.810Z,99421.06
2022-12-23T04:43:16.015Z,99429.91
2022-12-23T04:45:43.721Z,99429.00
2022-12-23T04:48:11.486Z,99431.66
2022-12-23T04:50:40.344Z,99433.06
2022-12-23T04:53:09.795Z,99431.34
2022-12-23T04:55:38.010Z,99422.88
2022-12-23T04:58:05.725Z,99426.53
2022-12-23T05:00:39.177Z,99425.00
2022-12-23T05:03:07.858Z,99434.84
2022-12-23T05:05:35.685Z,99439.22
2022-12-23T05:08:05.481Z,99436.53
2022-12-23T05:10:34.890Z,99455.34
2022-12-23T05:13:02.649Z,99459.84
2022-12-23T05:15:33.014Z,99458.78
2022-12-23T05:18:01.155Z,99452.53
2022-12-23T05:20:28.959Z,99456.03
2022-12-23T05:22:56.629Z,99458.31
2022-12-23T05:25:24.283Z,99459.94
2022-12-23T05:27:53.386Z,99458.63
2022-12-23T05:30:21.265Z,99460.44
2022-12-23T05:32:48.971Z,99452.59
2022-12-23T05:35:16.831Z,99449.03
2022-12-23T05:37:44.456Z,99449.94
2022-12-23T05:40:15.019Z,99441.63
2022-12-23T05:42:47.745Z,99440.06
2022-12-23T05:45:16.860Z,99442.63
2022-12-23T05:47:44.513Z,99447.69
2022-12-23T05:50:12.902Z,99440.88
2022-12-23T05:52:40.971Z,99446.84
2022-12-23T05:55:10.154Z,99438.91
2022-12-23T05:57:37.868Z,99445.41
2022-12-23T06:00:06.267Z,99441.75
2022-12-23T06:02:42.057Z,99445.47
2022-12-23T06:05:11.039Z,99449.69
2022-12-23T06:07:39.193Z,99443.44
2022-12-23T06:10:08.884Z,99441.13
2022-12-23T06:12:37.290Z,99448.38
2022-12-23T06:15:05.702Z,99435.28
2022-12-23T06:17:33.465Z,99435.38
2022-12-23T06:20:02.645Z,99443.31
2022-12-23T06:22:31.264Z,99447.13
2022-12-23T06:24:58.925Z,99442.34
2022-12-23T06:27:27.023Z,99448.53
2022-12-23T06:29:54.691Z,99456.53
2022-12-23T06:32:22.362Z,99459.25
2022-12-23T06:34:53.156Z,99463.91
2022-12-23T06:37:22.353Z,99459.53
2022-12-23T06:39:50.092Z,99468.06
2022-12-23T06:42:17.868Z,99472.84
2022-12-23T06:44:45.656Z,99470.53
2022-12-23T06:47:13.387Z,99475.03
2022-12-23T06:49:44.880Z,99473.41
2022-12-23T06:52:12.503Z,99463.28
2022-12-23T06:54:41.639Z,99476.56
2022-12-23T06:57:09.379Z,99478.53
2022-12-23T06:59:37.184Z,99487.47
2022-12-23T07:02:05.031Z,99485.28
2022-12-23T07:04:32.894Z,99483.88
2022-12-23T07:07:00.915Z,99477.50
2022-12-23T07:09:29.005Z,99470.84
2022-12-23T07:11:58.006Z,99473.44
2022-12-23T07:14:25.848Z,99472.63
2022-12-23T07:16:54.184Z,99470.06
2022-12-23T07:19:21.891Z,99470.97
2022-12-23T07:21:49.554Z,99465.72
2022-12-23T07:24:17.329Z,99467.69
2022-12-23T07:26:44.999Z,99467.41
2022-12-23T07:29:13.971Z,99461.34
2022-12-23T07:31:42.072Z,99478.59
2022-12-23T07:34:10.113Z,99483.09
2022-12-23T07:36:38.381Z,99501.56
2022-12-23T07:39:06.885Z,99508.25
2022-12-23T07:41:34.569Z,99507.97
2022-12-23T07:44:07.612Z,99516.19
2022-12-23T07:46:36.832Z,99515.91
2022-12-23T07:49:04.673Z,99516.66
2022-12-23T07:51:32.484Z,99519.47
2022-12-23T07:54:00.267Z,99514.44
2022-12-23T07:56:27.906Z,99510.09
2022-12-23T07:58:55.966Z,99502.16
2022-12-23T08:01:23.969Z,99495.38
2022-12-23T08:03:53.227Z,99496.78
2022-12-23T08:06:21.041Z,99494.19
2022-12-23T08:08:48.735Z,99490.59
2022-12-23T08:11:17.903Z,99495.50
2022-12-23T08:13:48.204Z,99494.13
2022-12-23T08:16:16.282Z,99487.97
2022-12-23T08:18:54.717Z,99489.88
2022-12-23T08:21:23.846Z,99486.13
2022-12-23T08:23:52.298Z,99474.47
2022-12-23T08:26:22.560Z,99482.88
2022-12-23T08:28:53.402Z,99478.13
2022-12-23T08:31:23.943Z,99475.53
2022-12-23T08:33:53.958Z,99499.50
2022-12-23T08:36:25.691Z,99495.06
2022-12-23T08:38:55.004Z,99496.81
2022-12-23T08:41:26.411Z,99505.38
2022-12-23T08:43:54.399Z,99500.25
2022-12-23T08:46:22.307Z,99501.38
2022-12-23T08:48:50.298Z,99501.47
2022-12-23T08:51:20.735Z,99500.31
2022-12-23T08:53:54.893Z,99499.25
2022-12-23T08:56:27.718Z,99493.31
2022-12-23T08:58:56.774Z,99489.50
2022-12-23T09:01:27.297Z,99498.63
2022-12-23T09:03:55.672Z,99503.81
2022-12-23T09:06:29.600Z,99512.22
2022-12-23T09:09:00.133Z,99505.56
2022-12-23T09:11:30.967Z,99506.59
2022-12-23T09:14:00.786Z,99506.75
2022-12-23T09:16:29.124Z,99509.50
2022-12-23T09:18:57.036Z,99514.69
2022-12-23T09:21:25.655Z,99510.19
2022-12-23T09:23:53.409Z,99497.78
2022-12-23T09:26:25.318Z,99502.63
2022-12-23T09:28:53.189Z,99494.75
2022-12-23T09:31:21.801Z,99498.94
2022-12-23T09:33:51.357Z,99492.31
2022-12-23T09:36:19.778Z,99493.44
2022-12-23T09:38:47.733Z,99489.78
2022-12-23T09:41:37.092Z,99488.69
2022-12-23T09:44:23.135Z,99489.25
2022-12-23T09:46:54.968Z,99495.13
2022-12-23T09:49:24.961Z,99481.22
2022-12-23T09:51:55.748Z,99479.31
2022-12-23T09:54:26.137Z,99474.13
2022-12-23T09:56:57.391Z,99482.81
2022-12-23T09:59:42.548Z,99473.69
2022-12-23T10:02:22.669Z,99471.16
2022-12-23T10:04:58.578Z,99466.63
2022-12-23T10:07:36.325Z,99470.69
2022-12-23T10:10:13.161Z,99463.66
2022-12-23T10:12:44.637Z,99468.09
2022-12-23T10:15:22.415Z,99472.38
2022-12-23T10:17:54.147Z,99464.31
2022-12-23T10:20:31.050Z,99463.50
2022-12-23T10:23:00.654Z,99460.81
2022-12-23T10:25:34.426Z,99446.69
2022-12-23T10:28:02.119Z,99454.47
2022-12-23T10:33:35.783Z,99451.53
2022-12-23T10:36:08.545Z,99439.41
2022-12-23T10:38:46.973Z,99445.84
2022-12-23T10:41:23.989Z,99431.00
2022-12-23T10:44:10.948Z,99422.06
2022-12-23T10:46:50.468Z,99422.00
2022-12-23T10:49:25.251Z,99421.41
2022-12-23T10:51:56.288Z,99407.28
2022-12-23T10:54:27.631Z,99402.75
2022-12-23T10:56:55.578Z,99399.91
2022-12-23T10:59:27.680Z,99393.94
2022-12-23T11:02:05.365Z,99386.91
2022-12-23T11:04:36.989Z,99379.44
2022-12-23T11:07:42.082Z,99373.72
2022-12-23T11:09:55.984Z,99374.66
2022-12-23T11:12:25.202Z,99368.72
2022-12-23T11:14:56.534Z,99367.03
2022-12-23T11:17:27.721Z,99351.09
2022-12-23T11:20:09.952Z,99337.53
2022-12-23T11:22:47.426Z,99339.38
2022-12-23T11:25:28.395Z,99340.34
2022-12-23T11:27:59.459Z,99334.31
2022-12-23T11:30:29.193Z,99329.91
2022-12-23T11:32:58.638Z,99328.06
2022-12-23T11:35:29.861Z,99328.06
2022-12-23T11:37:58.539Z,99317.41
2022-12-23T11:40:29.634Z,99307.19
2022-12-23T11:43:00.521Z,99305.25
2022-12-23T11:45:37.067Z,99306.63
2022-12-23T11:48:07.999Z,99301.75
2022-12-23T11:50:38.086Z,99295.97
2022-12-23T11:53:13.618Z,99294.22
2022-12-23T11:55:56.870Z,99293.22
2022-12-23T11:58:25.920Z,99290.06
2022-12-23T12:00:56.871Z,99275.03
2022-12-23T12:03:31.974Z,99267.13
2022-12-23T12:06:02.124Z,99273.25
2022-12-23T12:08:34.200Z,99261.56
2022-12-23T12:11:06.934Z,99263.50
2022-12-23T12:13:39.582Z,99261.00
2022-12-23T12:16:23.484Z,99256.84
2022-12-23T12:18:56.623Z,99255.34
2022-12-23T12:21:29.274Z,99237.16
2022-12-23T12:24:17.729Z,99226.56
2022-12-23T12:26:50.934Z,99224.53
2022-12-23T12:29:23.699Z,99221.34
2022-12-23T12:31:54.043Z,99210.13
2022-12-23T12:34:38.278Z,99197.13
2022-12-23T12:37:14.696Z,99202.34
2022-12-23T12:39:44.168Z,99201.09
2022-12-23T12:42:16.922Z,99184.97
2022-12-23T12:44:53.237Z,99185.41
2022-12-23T12:47:52.874Z,99185.06
2022-12-23T12:50:23.781Z,99180.97
2022-12-23T12:52:55.091Z,99170.47
2022-12-23T12:55:27.609Z,99158.28
2022-12-23T12:57:55.454Z,99162.47
2022-12-23T13:00:24.896Z,99168.63
2022-12-23T13:03:09.888Z,99165.97
2022-12-23T13:05:54.813Z,99169.81
2022-12-23T13:08:42.084Z,99159.84
2022-12-23T13:11:14.891Z,99161.25
2022-12-23T13:13:51.863Z,99152.69
2022-12-23T13:16:32.179Z,99138.06
2022-12-23T13:19:05.254Z,99123.06
2022-12-23T13:21:42.153Z,99129.31
2022-12-23T13:24:21.587Z,99119.69
2022-12-23T13:27:00.461Z,99120.38
2022-12-23T13:29:57.574Z,99102.25
2022-12-23T13:32:51.370Z,99104.06
2022-12-23T13:35:33.638Z,99097.31
2022-12-23T13:38:09.978Z,99093.59
2022-12-23T13:40:45.457Z,99087.31
2022-12-23T13:43:16.233Z,99089.91
2022-12-23T13:45:47.409Z,99097.34
2022-12-23T13:48:36.900Z,99086.31
2022-12-23T13:51:11.116Z,99093.16
2022-12-23T13:53:51.033Z,99088.16
2022-12-23T13:56:28.088Z,99079.97
2022-12-23T13:58:56.749Z,99086.41
2022-12-23T14:01:35.934Z,99082.97
2022-12-23T14:04:32.762Z,99073.84
2022-12-23T14:07:02.208Z,99067.69
2022-12-23T14:09:35.652Z,99068.72
2022-12-23T14:12:18.293Z,99066.13
2022-12-23T14:15:03.761Z,99064.34
2022-12-23T14:17:42.570Z,99056.44
2022-12-23T14:20:26.391Z,99070.63
2022-12-23T14:23:05.189Z,99061.34
2022-12-23T14:25:56.505Z,99068.53
2022-12-23T14:28:46.713Z,99064.97
2022-12-23T14:31:31.116Z,99058.97
2022-12-23T14:34:06.231Z,99060.09
2022-12-23T14:36:34.281Z,99051.78
2022-12-23T14:39:32.024Z,99052.75
2022-12-23T14:42:06.092Z,99061.06
2022-12-23T14:44:49.787Z,99049.09
2022-12-23T14:47:32.137Z,99057.22
2022-12-23T14:50:37.872Z,99052.22
2022-12-23T14:53:20.392Z,99044.91
2022-12-23T14:55:49.630Z,99061.72
2022-12-23T14:58:40.321Z,99058.56
2022-12-23T15:01:13.778Z,99055.13
2022-12-23T15:03:46.099Z,99049.00
2022-12-23T15:06:19.320Z,99047.72
2022-12-23T15:08:49.995Z,99041.25
2022-12-23T15:11:24.082Z,99033.34
2022-12-23T15:13:54.922Z,99041.47
2022-12-23T15:16:32.006Z,99046.78
2022-12-23T15:19:03.173Z,99057.72
2022-12-23T15:21:33.953Z,99075.00
2022-12-23T15:24:02.097Z,99075.31
2022-12-23T15:26:32.785Z,99078.28
2022-12-23T15:29:02.248Z,99074.91
2022-12-23T15:31:34.208Z,99087.44
2022-12-23T15:34:11.776Z,99085.88
2022-12-23T15:36:45.148Z,99097.53
2022-12-23T15:39:20.195Z,99098.97
2022-12-23T15:41:48.742Z,99097.81
2022-12-23T15:44:22.271Z,99109.78
2022-12-23T15:46:50.544Z,99106.97
2022-12-23T15:49:20.243Z,99109.78
2022-12-23T15:52:08.076Z,99108.88
2022-12-23T15:54:45.006Z,99103.16
2022-12-23T15:57:19.143Z,99100.66
2022-12-23T15:59:49.930Z,99091.72
2022-12-23T16:02:58.944Z,99092.53
2022-12-23T16:05:10.531Z,99091.50
2022-12-23T16:07:41.783Z,99081.50
2022-12-23T16:10:16.272Z,99080.84
2022-12-23T16:12:44.895Z,99066.78
2022-12-23T16:15:28.534Z,99079.06
2022-12-23T16:18:14.528Z,99076.69
2022-12-23T16:20:44.439Z,99073.38
2022-12-23T16:23:13.950Z,99074.09
2022-12-23T16:25:50.127Z,99070.47
2022-12-23T16:28:24.102Z,99080.56
2022-12-23T16:30:55.833Z,99082.03
2022-12-23T16:33:35.969Z,99079.72
2022-12-23T16:36:21.172Z,99087.03
2022-12-23T16:38:51.013Z,99090.25
2022-12-23T16:41:20.400Z,99085.34
2022-12-23T16:43:52.464Z,99087.44
2022-12-23T16:46:23.975Z,99085.97
2022-12-23T16:48:55.460Z,99098.47
2022-12-23T16:51:24.314Z,99101.91
2022-12-23T16:53:54.996Z,99097.97
2022-12-23T16:56:25.099Z,99103.38
2022-12-23T16:58:52.812Z,99109.63
2022-12-23T17:01:24.415Z,99115.59
2022-12-23T17:03:52.583Z,99114.75
2022-12-23T17:06:21.338Z,99110.56
2022-12-23T17:08:49.977Z,99110.16
2022-12-23T17:11:19.462Z,99123.09
2022-12-23T17:13:47.222Z,99128.28
2022-12-23T17:16:19.219Z,99125.47
2022-12-23T17:18:48.268Z,99132.16
2022-12-23T17:21:21.217Z,99150.41
2022-12-23T17:23:49.889Z,99144.78
2022-12-23T17:26:17.561Z,99154.38
2022-12-23T17:28:45.527Z,99159.16
2022-12-23T17:31:16.278Z,99150.00
2022-12-23T17:33:48.502Z,99160.03
2022-12-23T17:36:17.411Z,99159.56
2022-12-23T17:38:45.479Z,99157.09
2022-12-23T17:41:21.234Z,99157.22
2022-12-23T17:43:48.942Z,99168.09
2022-12-23T17:46:17.761Z,99169.00
2022-12-23T17:48:47.034Z,99172.66
2022-12-23T17:51:17.543Z,99176.34
2022-12-23T17:53:46.831Z,99177.50
2022-12-23T17:56:17.016Z,99174.78
2022-12-23T17:58:46.197Z,99177.81
2022-12-23T18:01:18.384Z,99183.22
2022-12-23T18:03:46.371Z,99191.69
2022-12-23T18:06:17.512Z,99196.47
2022-12-23T18:08:45.855Z,99203.06
2022-12-23T18:11:21.801Z,99205.84
2022-12-23T18:13:51.175Z,99211.16
2022-12-23T18:16:19.384Z,99203.13
2022-12-23T18:18:47.406Z,99208.09
2022-12-23T18:21:21.304Z,99214.44
2022-12-23T18:23:49.035Z,99218.91
2022-12-23T18:26:16.986Z,99218.16
2022-12-23T18:28:45.269Z,99223.69
2022-12-23T18:31:16.928Z,99227.59
2022-12-23T18:33:44.764Z,99235.72
2022-12-23T18:36:26.194Z,99248.09
2022-12-23T18:38:54.554Z,99247.44
2022-12-23T18:41:23.075Z,99249.41
2022-12-23T18:43:50.786Z,99260.66
2022-12-23T18:46:19.956Z,99264.19
2022-12-23T18:48:48.340Z,99265.50
2022-12-23T18:51:17.190Z,99273.00
2022-12-23T18:53:46.992Z,99280.38
2022-12-23T18:56:15.128Z,99298.69
2022-12-23T18:58:43.222Z,99300.91
2022-12-23T19:01:13.286Z,99306.25
2022-12-23T19:03:41.289Z,99312.94
2022-12-23T19:06:10.615Z,99317.16
2022-12-23T19:08:39.490Z,99325.44
2022-12-23T19:11:12.818Z,99316.50
2022-12-23T19:13:41.478Z,99325.25
2022-12-23T19:16:12.979Z,99323.28
2022-12-23T19:18:40.808Z,99327.44
2022-12-23T19:21:09.214Z,99340.47
2022-12-23T19:23:37.184Z,99347.34
2022-12-23T19:26:06.173Z,99361.00
2022-12-23T19:28:37.156Z,99374.41
2022-12-23T19:31:08.966Z,99367.72
2022-12-23T19:33:37.576Z,99370.97
2022-12-23T19:36:09.647Z,99375.53
2022-12-23T19:38:37.728Z,99378.59
2022-12-23T19:41:06.535Z,99380.53
2022-12-23T19:43:36.570Z,99389.00
2022-12-23T19:46:07.210Z,99396.97
2022-12-23T19:48:35.826Z,99410.25
2022-12-23T19:51:06.760Z,99395.53
2022-12-23T19:53:35.599Z,99413.47
2022-12-23T19:56:05.630Z,99392.63
2022-12-23T19:58:36.521Z,99388.09
2022-12-23T20:01:10.036Z,99390.50
2022-12-23T20:03:38.916Z,99401.34
2022-12-23T20:06:08.319Z,99400.63
2022-12-23T20:08:36.336Z,99401.53
2022-12-23T20:11:06.245Z,99416.03
2022-12-23T20:13:36.061Z,99420.84
2022-12-23T20:16:05.587Z,99435.53
2022-12-23T20:18:33.363Z,99440.16
2022-12-23T20:21:01.795Z,99449.34
2022-12-23T20:23:30.546Z,99439.66
2022-12-23T20:25:58.345Z,99450.66
2022-12-23T20:28:26.493Z,99453.34
2022-12-23T20:31:07.409Z,99458.38
2022-12-23T20:33:35.474Z,99455.69
2022-12-23T20:36:03.679Z,99459.13
2022-12-23T20:38:31.349Z,99473.72
2022-12-23T20:40:59.266Z,99487.06
2022-12-23T20:43:26.910Z,99485.22
2022-12-23T20:45:54.715Z,99482.56
2022-12-23T20:48:28.163Z,99487.41
2022-12-23T20:51:04.836Z,99501.41
2022-12-23T20:53:33.062Z,99510.88
2022-12-23T20:56:01.033Z,99519.09
2022-12-23T20:58:46.301Z,99520.59
2022-12-23T21:01:14.637Z,99519.34
2022-12-23T21:03:44.580Z,99528.16
2022-12-23T21:06:12.344Z,99531.59
2022-12-23T21:08:40.222Z,99538.50
2022-12-23T21:11:08.527Z,99538.81
2022-12-23T21:13:36.985Z,99548.78
2022-12-23T21:16:07.815Z,99556.50
2022-12-23T21:18:36.450Z,99546.34
2022-12-23T21:21:06.467Z,99551.13
2022-12-23T21:23:37.901Z,99552.81
2022-12-23T21:26:10.663Z,99549.63
2022-12-23T21:28:38.647Z,99556.50
2022-12-23T21:31:06.891Z,99554.53
2022-12-23T21:33:37.151Z,99552.50
2022-12-23T21:36:08.086Z,99553.97
2022-12-23T21:38:38.147Z,99554.59
2022-12-23T21:41:08.798Z,99559.78
2022-12-23T21:43:36.884Z,99551.09
2022-12-23T21:46:07.248Z,99566.31
2022-12-23T21:48:36.635Z,99557.16
2022-12-23T21:51:07.967Z,99570.56
2022-12-23T21:53:36.686Z,99558.53
2022-12-23T21:56:06.458Z,99567.41
2022-12-23T21:58:35.169Z,99580.06
2022-12-23T22:01:07.922Z,99576.72
2022-12-23T22:03:35.913Z,99572.59
2022-12-23T22:06:10.908Z,99584.66
2022-12-23T22:08:39.298Z,99582.75
2022-12-23T22:11:08.836Z,99582.53
2022-12-23T22:13:36.708Z,99584.13
2022-12-23T22:16:06.105Z,99576.31
2022-12-23T22:18:34.099Z,99591.03
2022-12-23T22:21:07.227Z,99590.59
2022-12-23T22:23:35.099Z,99597.44
2022-12-23T22:26:02.828Z,99609.16
2022-12-23T22:28:32.352Z,99615.03
2022-12-23T22:31:03.308Z,99621.06
2022-12-23T22:33:32.366Z,99616.56
2022-12-23T22:36:00.523Z,99622.09
2022-12-23T22:38:29.750Z,99639.94
2022-12-23T22:40:57.506Z,99640.19
2022-12-23T22:43:25.379Z,99636.22
2022-12-23T22:45:56.924Z,99631.78
2022-12-23T22:48:24.819Z,99639.66
2022-12-23T22:50:53.750Z,99654.91
2022-12-23T22:53:27.838Z,99655.50
2022-12-23T22:55:59.490Z,99662.94
2022-12-23T22:58:27.411Z,99671.25
2022-12-23T23:00:55.179Z,99676.03
2022-12-23T23:03:23.195Z,99685.41
2022-12-23T23:06:02.806Z,99678.38
2022-12-23T23:08:31.441Z,99685.66
2022-12-23T23:11:03.162Z,99687.81
2022-12-23T23:13:33.471Z,99694.22
2022-12-23T23:16:01.539Z,99700.34
2022-12-23T23:18:30.036Z,99708.22
2022-12-23T23:20:58.026Z,99703.84
2022-12-23T23:23:25.780Z,99703.69
2022-12-23T23:25:53.731Z,99701.53
2022-12-23T23:28:22.849Z,99715.75
2022-12-23T23:30:59.082Z,99706.72
2022-12-23T23:33:38.584Z,99708.00
2022-12-23T23:36:07.161Z,99712.72
2022-12-23T23:38:35.132Z,99715.59
2022-12-23T23:41:03.757Z,99712.81
2022-12-23T23:43:32.803Z,99713.56
2022-12-23T23:46:00.715Z,99719.41
2022-12-23T23:48:28.421Z,99715.75
2022-12-23T23:51:04.419Z,99732.09
2022-12-23T23:53:32.159Z,99736.28
2022-12-23T23:56:07.500Z,99742.69
2022-12-23T23:58:37.694Z,99739.16
